Time;durP1;ratioP1;P1;durP2;ratioP2;P2;SDS_P1;SDS_P2;PMS_P1;PMS_P2;Temp;Humidity;BMP_temperature;BMP_pressure;BME280_temperature;BME280_humidity;BME280_pressure;Samples;Min_cycle;Max_cycle;Signal;HPM_P1;HPM_P2
2021/12/07 11:00:45;;;;;;;;;;;19.90;48.60;;;;;;5062020;27;1965674;-59
2021/12/07 11:03:15;;;;;;;;;;;20.00;50.00;;;;;;5130444;28;19918;-60
2021/12/07 11:05:43;;;;;;;;;;;20.20;51.00;;;;;;5129696;28;19907;-60
2021/12/07 11:08:09;;;;;;;;;;;20.30;51.40;;;;;;5130060;28;20275;-61
2021/12/07 11:10:39;;;;;;;;;;;20.50;51.70;;;;;;5128787;28;20003;-59
2021/12/07 11:15:33;;;;;;;;;;;20.90;51.80;;;;;;5130263;28;19964;-63
2021/12/07 11:18:07;;;;;;;;;;;21.10;51.90;;;;;;5130089;28;19915;-73
2021/12/07 11:20:33;;;;;;;;;;;21.20;51.80;;;;;;5111136;28;20387;-64
2021/12/07 11:23:04;;;;;;;;;;;21.40;51.80;;;;;;5130186;28;19950;-64
2021/12/07 11:29:39;;;;;;;;;;;21.40;51.80;;;;;;5130017;28;20177;-65
2021/12/07 11:31:34;;;;;;;;;;;21.70;51.70;;;;;;5129877;28;19956;-62
2021/12/07 11:34:08;;;;;;;;;;;21.60;51.60;;;;;;5107506;28;19974;-61
2021/12/07 11:36:39;;;;;;;;;;;21.70;51.60;;;;;;5129749;28;19907;-60
2021/12/07 11:39:18;;;;;;;;;;;21.70;51.50;;;;;;5129748;28;19915;-59
2021/12/07 11:41:46;;;;;;;;;;;21.80;51.50;;;;;;5129659;28;19975;-59
2021/12/07 11:44:11;;;;;;;;;;;21.80;51.40;;;;;;5129577;28;19908;-59
2021/12/07 11:46:38;;;;;;;;;;;21.90;51.40;;;;;;5129490;28;19908;-58
2021/12/07 11:49:05;;;;;;;;;;;21.90;51.40;;;;;;5129109;28;19930;-57
2021/12/07 11:51:30;;;;;;;;;;;22.00;51.40;;;;;;5129476;28;19942;-58
2021/12/07 11:53:56;;;;;;;;;;;22.00;51.40;;;;;;5129343;28;19912;-60
2021/12/07 11:56:21;;;;;;;;;;;22.10;51.40;;;;;;5129223;28;19908;-63
2021/12/07 11:58:47;;;;;;;;;;;22.10;51.40;;;;;;5128973;28;20419;-65
2021/12/07 12:01:12;;;;;;;;;;;22.20;51.40;;;;;;5129272;28;20275;-60
2021/12/07 12:03:38;;;;;;;;;;;22.20;51.30;;;;;;5128522;28;20006;-60
2021/12/07 12:06:04;;;;;;;;;;;22.20;51.30;;;;;;5108548;28;19912;-59
2021/12/07 12:08:30;;;;;;;;;;;22.20;51.20;;;;;;5107698;28;19908;-59
2021/12/07 12:10:58;;;;;;;;;;;22.20;51.20;;;;;;5101172;28;19909;-59
2021/12/07 12:13:41;;;;;;;;;;;22.30;51.20;;;;;;5094756;28;19962;-59
2021/12/07 12:16:20;;;;;;;;;;;22.30;51.10;;;;;;5094583;28;19912;-59
2021/12/07 12:18:52;;;;;;;;;;;22.30;51.10;;;;;;5094105;28;19916;-59
2021/12/07 12:21:29;;;;;;;;;;;22.30;51.00;;;;;;5094601;28;19908;-59
2021/12/07 12:24:10;;;;;;;;;;;22.30;51.00;;;;;;5094768;28;19992;-59
2021/12/07 12:26:36;;;;;;;;;;;22.30;50.90;;;;;;5094676;28;19918;-59
2021/12/07 12:29:13;;;;;;;;;;;22.40;50.90;;;;;;5098372;28;20002;-59
2021/12/07 12:31:49;;;;;;;;;;;22.40;51.00;;;;;;5112485;28;19934;-59
2021/12/07 12:34:35;;;;;;;;;;;22.40;50.90;;;;;;5075551;28;20380;-59
2021/12/07 12:37:00;;;;;;;;;;;22.40;50.80;;;;;;5093710;28;19943;-59
2021/12/07 12:39:39;;;;;;;;;;;22.40;50.80;;;;;;5094368;28;19971;-59
2021/12/07 12:42:05;;;;;;;;;;;22.40;50.80;;;;;;5094268;28;19962;-59
2021/12/07 12:44:33;;;;;;;;;;;22.40;50.70;;;;;;5094209;28;19912;-59
2021/12/07 12:46:59;;;;;;;;;;;22.40;50.70;;;;;;5093629;28;20341;-59
2021/12/07 12:49:35;;;;;;;;;;;22.40;50.60;;;;;;5094127;28;19929;-59
2021/12/07 12:52:00;;;;;;;;;;;22.40;50.60;;;;;;5094102;28;19909;-59
2021/12/07 12:54:25;;;;;;;;;;;22.40;50.50;;;;;;5094130;28;19908;-59
2021/12/07 12:56:51;;;;;;;;;;;22.40;50.50;;;;;;5093955;28;19954;-59
2021/12/07 12:59:18;;;;;;;;;;;22.40;50.50;;;;;;5093838;28;19920;-59
2021/12/07 13:01:45;;;;;;;;;;;22.50;50.50;;;;;;5091740;28;19962;-60
2021/12/07 13:04:13;;;;;;;;;;;22.40;50.40;;;;;;5093314;28;19908;-60
2021/12/07 13:06:43;;;;;;;;;;;22.40;50.30;;;;;;5093291;28;19915;-60
2021/12/07 13:09:18;;;;;;;;;;;22.50;50.40;;;;;;5093625;28;19909;-60
2021/12/07 13:11:49;;;;;;;;;;;22.40;50.30;;;;;;5093860;28;19963;-59
2021/12/07 13:14:23;;;;;;;;;;;22.40;50.20;;;;;;5093617;28;20352;-60
2021/12/07 13:16:55;;;;;;;;;;;22.50;50.30;;;;;;5093293;28;19915;-60
2021/12/07 13:19:20;;;;;;;;;;;22.50;50.20;;;;;;5093413;28;19962;-60
2021/12/07 13:21:48;;;;;;;;;;;22.50;50.20;;;;;;5092902;28;20322;-60
2021/12/07 13:24:32;;;;;;;;;;;22.50;50.10;;;;;;5093047;28;19908;-59
2021/12/07 13:26:58;;;;;;;;;;;22.50;50.10;;;;;;5092535;28;19915;-60
2021/12/07 13:29:24;;;;;;;;;;;22.50;50.10;;;;;;5082112;28;19908;-57
2021/12/07 13:31:56;;;;;;;;;;;22.50;50.00;;;;;;5099032;28;19954;-58
2021/12/07 13:34:26;;;;;;;;;;;22.50;50.00;;;;;;5113217;28;20011;-61
2021/12/07 13:36:57;;;;;;;;;;;22.50;50.00;;;;;;5113672;28;19969;-57
2021/12/07 13:39:23;;;;;;;;;;;22.50;50.00;;;;;;5095058;28;19923;-57
2021/12/07 13:41:58;;;;;;;;;;;22.60;50.00;;;;;;5113574;28;19968;-58
2021/12/07 13:44:25;;;;;;;;;;;22.60;50.00;;;;;;5113383;28;20383;-56
2021/12/07 13:46:51;;;;;;;;;;;22.60;49.90;;;;;;5112048;28;19915;-60
2021/12/07 13:49:17;;;;;;;;;;;22.70;50.00;;;;;;5099834;28;19908;-59
2021/12/07 13:51:42;;;;;;;;;;;22.70;50.00;;;;;;5103352;28;19908;-62
2021/12/07 13:54:14;;;;;;;;;;;22.70;49.90;;;;;;5112572;28;19912;-59
2021/12/07 13:56:40;;;;;;;;;;;22.70;49.90;;;;;;5113180;28;19907;-58
2021/12/07 13:59:12;;;;;;;;;;;22.80;50.00;;;;;;5112435;28;20284;-59
2021/12/07 14:01:41;;;;;;;;;;;22.80;50.00;;;;;;5113051;28;20006;-60
2021/12/07 14:04:07;;;;;;;;;;;22.80;49.90;;;;;;5112954;28;20238;-58
2021/12/07 14:06:33;;;;;;;;;;;22.80;49.90;;;;;;5112938;28;19912;-59
2021/12/07 14:09:17;;;;;;;;;;;22.90;50.00;;;;;;5112946;28;19914;-59
2021/12/07 14:11:42;;;;;;;;;;;22.90;49.90;;;;;;5091354;28;19919;-59
2021/12/07 14:14:10;;;;;;;;;;;22.80;49.90;;;;;;5089465;28;19915;-59
2021/12/07 14:16:36;;;;;;;;;;;22.90;50.10;;;;;;5089889;28;20368;-59
2021/12/07 14:19:02;;;;;;;;;;;22.90;49.90;;;;;;5089741;28;20291;-59
2021/12/07 14:21:28;;;;;;;;;;;22.80;49.80;;;;;;5089845;28;19963;-60
2021/12/07 14:24:03;;;;;;;;;;;22.90;49.80;;;;;;5088673;28;19914;-59
2021/12/07 14:26:29;;;;;;;;;;;22.80;49.70;;;;;;5069813;28;19912;-59
2021/12/07 14:29:02;;;;;;;;;;;22.90;49.80;;;;;;5088792;28;19912;-59
2021/12/07 14:31:28;;;;;;;;;;;22.90;49.70;;;;;;5089756;28;19951;-59
2021/12/07 14:33:53;;;;;;;;;;;22.80;49.70;;;;;;5088981;28;20353;-59
2021/12/07 14:36:20;;;;;;;;;;;22.90;49.70;;;;;;5107848;28;19915;-59
2021/12/07 14:38:49;;;;;;;;;;;22.80;49.60;;;;;;5092639;28;20087;-59
2021/12/07 14:41:17;;;;;;;;;;;22.80;49.60;;;;;;5089334;28;20280;-59
2021/12/07 14:43:43;;;;;;;;;;;22.80;49.60;;;;;;5088987;28;19918;-59
2021/12/07 14:46:19;;;;;;;;;;;22.80;49.60;;;;;;5088857;28;19908;-59
2021/12/07 14:48:45;;;;;;;;;;;22.80;49.60;;;;;;5089383;28;19957;-58
2021/12/07 14:51:14;;;;;;;;;;;22.80;49.50;;;;;;5089739;28;20356;-59
2021/12/07 14:53:45;;;;;;;;;;;22.80;49.50;;;;;;5089536;28;19919;-59
2021/12/07 14:56:11;;;;;;;;;;;22.80;49.50;;;;;;5089491;28;20450;-59
2021/12/07 14:58:37;;;;;;;;;;;22.80;49.40;;;;;;5088563;28;19981;-59
2021/12/07 15:01:05;;;;;;;;;;;22.80;49.40;;;;;;5102506;28;19924;-59
2021/12/07 15:03:39;;;;;;;;;;;22.80;49.40;;;;;;5089275;28;19912;-59
2021/12/07 15:06:04;;;;;;;;;;;22.80;49.40;;;;;;5089062;28;19912;-59
2021/12/07 15:08:30;;;;;;;;;;;22.80;49.40;;;;;;5089367;28;19912;-59
2021/12/07 15:10:57;;;;;;;;;;;22.80;49.40;;;;;;5088920;28;19919;-59
2021/12/07 15:13:22;;;;;;;;;;;22.80;49.40;;;;;;5088721;28;19912;-59
2021/12/07 15:15:48;;;;;;;;;;;22.80;49.30;;;;;;5088907;28;19912;-59
2021/12/07 15:18:14;;;;;;;;;;;22.70;49.20;;;;;;5089123;28;19908;-64
2021/12/07 15:20:39;;;;;;;;;;;22.80;49.20;;;;;;5089013;28;19926;-60
2021/12/07 15:23:05;;;;;;;;;;;22.80;49.20;;;;;;5088913;28;20008;-60
2021/12/07 15:25:31;;;;;;;;;;;22.80;49.20;;;;;;5087661;28;19912;-60
2021/12/07 15:27:56;;;;;;;;;;;22.80;49.10;;;;;;5088640;28;19909;-60
2021/12/07 15:30:22;;;;;;;;;;;22.80;49.10;;;;;;5088844;28;19912;-60
2021/12/07 15:32:48;;;;;;;;;;;22.80;49.10;;;;;;5088934;28;19976;-60
2021/12/07 15:35:23;;;;;;;;;;;22.80;49.10;;;;;;5088791;28;20322;-59
2021/12/07 15:37:49;;;;;;;;;;;22.70;49.00;;;;;;5088917;28;19918;-59
2021/12/07 15:40:14;;;;;;;;;;;22.80;49.00;;;;;;5088901;28;19986;-60
2021/12/07 15:42:41;;;;;;;;;;;22.80;49.00;;;;;;5088426;28;19948;-60
2021/12/07 15:45:08;;;;;;;;;;;22.70;48.90;;;;;;5088828;28;19922;-60
2021/12/07 15:47:35;;;;;;;;;;;22.70;48.90;;;;;;5092850;28;20329;-60
2021/12/07 15:50:07;;;;;;;;;;;22.70;48.90;;;;;;5092801;28;19912;-60
2021/12/07 15:52:34;;;;;;;;;;;22.80;48.90;;;;;;5075130;28;20437;-60
2021/12/07 15:55:14;;;;;;;;;;;22.70;48.90;;;;;;5097207;28;19939;-60
2021/12/07 15:57:51;;;;;;;;;;;22.70;48.80;;;;;;5093585;28;20124;-59
2021/12/07 16:00:21;;;;;;;;;;;22.70;48.90;;;;;;5094840;28;20342;-60
2021/12/07 16:02:51;;;;;;;;;;;22.80;48.80;;;;;;5095056;28;20399;-59
2021/12/07 16:05:17;;;;;;;;;;;22.70;48.70;;;;;;5095122;28;19952;-60
2021/12/07 16:07:43;;;;;;;;;;;22.70;48.70;;;;;;5095012;28;19916;-59
2021/12/07 16:10:14;;;;;;;;;;;22.80;48.70;;;;;;5094748;28;19908;-59
2021/12/07 16:12:40;;;;;;;;;;;22.80;48.70;;;;;;5094905;28;20375;-59
2021/12/07 16:15:06;;;;;;;;;;;22.80;48.70;;;;;;5089263;28;19912;-59
2021/12/07 16:17:32;;;;;;;;;;;22.80;48.70;;;;;;5093812;28;19908;-59
2021/12/07 16:19:57;;;;;;;;;;;22.80;48.80;;;;;;5102408;28;19916;-58
2021/12/07 16:22:22;;;;;;;;;;;22.80;48.80;;;;;;5115086;28;19908;-58
2021/12/07 16:24:48;;;;;;;;;;;22.80;48.90;;;;;;5114503;28;19908;-60
2021/12/07 16:27:13;;;;;;;;;;;22.80;48.90;;;;;;5115191;28;20371;-60
2021/12/07 16:29:44;;;;;;;;;;;22.80;48.90;;;;;;5115238;28;19908;-61
2021/12/07 16:32:10;;;;;;;;;;;22.90;49.00;;;;;;5095281;28;19908;-60
2021/12/07 16:34:35;;;;;;;;;;;22.90;49.10;;;;;;5076293;28;19919;-61
2021/12/07 16:37:01;;;;;;;;;;;22.90;49.10;;;;;;5094343;28;20007;-60
2021/12/07 16:39:26;;;;;;;;;;;22.90;49.20;;;;;;5093882;28;20299;-58
2021/12/07 16:41:52;;;;;;;;;;;22.90;49.30;;;;;;5094233;28;19915;-60
2021/12/07 16:44:17;;;;;;;;;;;23.00;49.40;;;;;;5094434;28;19908;-59
2021/12/07 16:46:43;;;;;;;;;;;23.00;49.50;;;;;;5094202;28;19908;-58
2021/12/07 16:49:08;;;;;;;;;;;23.10;49.60;;;;;;5075601;28;20010;-56
2021/12/07 16:51:34;;;;;;;;;;;23.10;49.70;;;;;;5108177;28;19912;-57
2021/12/07 16:54:00;;;;;;;;;;;23.20;49.80;;;;;;5093624;28;19908;-59
2021/12/07 16:56:26;;;;;;;;;;;23.20;49.90;;;;;;5093851;28;20260;-58
2021/12/07 16:58:52;;;;;;;;;;;23.20;49.90;;;;;;5093774;28;19923;-59
2021/12/07 17:01:17;;;;;;;;;;;23.30;50.00;;;;;;5075950;28;19958;-58
2021/12/07 17:03:44;;;;;;;;;;;23.30;50.00;;;;;;5093898;28;19908;-58
2021/12/07 17:06:10;;;;;;;;;;;23.30;50.10;;;;;;5093990;28;19959;-60
2021/12/07 17:08:37;;;;;;;;;;;23.30;50.10;;;;;;5093330;28;19912;-59
2021/12/07 17:11:03;;;;;;;;;;;23.30;50.10;;;;;;5094241;28;19908;-58
2021/12/07 17:13:29;;;;;;;;;;;23.30;50.10;;;;;;5093843;28;19915;-57
2021/12/07 17:15:55;;;;;;;;;;;23.30;50.00;;;;;;5093763;28;19912;-60
2021/12/07 17:18:20;;;;;;;;;;;23.30;50.00;;;;;;5093691;28;20288;-57
2021/12/07 17:20:46;;;;;;;;;;;23.30;49.90;;;;;;5093607;28;19920;-59
2021/12/07 17:23:12;;;;;;;;;;;23.40;49.90;;;;;;5093215;28;19922;-59
2021/12/07 17:25:38;;;;;;;;;;;23.40;49.90;;;;;;5093544;28;20022;-58
2021/12/07 17:28:04;;;;;;;;;;;23.40;49.80;;;;;;5093587;28;19934;-58
2021/12/07 17:30:30;;;;;;;;;;;23.40;49.80;;;;;;5093477;28;20276;-58
2021/12/07 17:32:55;;;;;;;;;;;23.40;49.80;;;;;;5093343;28;20407;-58
2021/12/07 17:35:21;;;;;;;;;;;23.50;49.80;;;;;;5093335;28;19915;-58
2021/12/07 17:37:47;;;;;;;;;;;23.50;49.80;;;;;;5092868;28;19955;-58
2021/12/07 17:40:15;;;;;;;;;;;23.40;49.70;;;;;;5093067;28;19923;-58
2021/12/07 17:42:41;;;;;;;;;;;23.50;49.80;;;;;;5093243;28;19909;-58
2021/12/07 17:45:07;;;;;;;;;;;23.50;49.80;;;;;;5093143;28;19908;-58
2021/12/07 17:47:33;;;;;;;;;;;23.50;49.80;;;;;;5093094;28;20010;-58
2021/12/07 17:49:58;;;;;;;;;;;23.50;49.80;;;;;;5093023;28;20336;-58
2021/12/07 17:52:24;;;;;;;;;;;23.50;49.70;;;;;;5092425;28;20348;-58
2021/12/07 17:54:49;;;;;;;;;;;23.50;49.70;;;;;;5092902;28;20020;-58
2021/12/07 17:57:15;;;;;;;;;;;23.50;49.60;;;;;;5092953;28;20415;-58
2021/12/07 17:59:40;;;;;;;;;;;23.50;49.60;;;;;;5092736;28;19920;-57
2021/12/07 18:02:06;;;;;;;;;;;23.50;49.60;;;;;;5092827;28;20050;-57
2021/12/07 18:04:32;;;;;;;;;;;23.50;49.60;;;;;;5092890;28;19912;-57
2021/12/07 18:06:58;;;;;;;;;;;23.50;49.60;;;;;;5092271;28;19908;-57
2021/12/07 18:09:23;;;;;;;;;;;23.50;49.60;;;;;;5092086;28;19908;-57
2021/12/07 18:11:49;;;;;;;;;;;23.50;49.60;;;;;;5092643;28;19912;-57
2021/12/07 18:14:17;;;;;;;;;;;23.50;49.50;;;;;;5092693;28;19915;-57
2021/12/07 18:16:42;;;;;;;;;;;23.50;49.50;;;;;;5092563;28;20364;-58
2021/12/07 18:19:09;;;;;;;;;;;23.50;49.50;;;;;;5092482;28;19916;-58
2021/12/07 18:21:35;;;;;;;;;;;23.50;49.50;;;;;;5092010;28;19908;-57
2021/12/07 18:24:01;;;;;;;;;;;23.50;49.50;;;;;;5092477;28;19908;-57
2021/12/07 18:26:27;;;;;;;;;;;23.50;49.50;;;;;;5092636;28;19915;-57
2021/12/07 18:28:53;;;;;;;;;;;23.50;49.50;;;;;;5092422;28;19915;-57
2021/12/07 18:31:18;;;;;;;;;;;23.50;49.50;;;;;;5092424;28;19908;-57
2021/12/07 18:33:44;;;;;;;;;;;23.50;49.40;;;;;;5092375;28;20372;-57
2021/12/07 18:36:10;;;;;;;;;;;23.50;49.40;;;;;;5091719;28;20003;-57
2021/12/07 18:38:40;;;;;;;;;;;23.50;49.40;;;;;;5089951;28;19919;-54
2021/12/07 18:41:06;;;;;;;;;;;23.50;49.30;;;;;;5086480;28;20006;-56
2021/12/07 18:43:33;;;;;;;;;;;23.50;49.30;;;;;;5103883;28;19908;-57
2021/12/07 18:45:58;;;;;;;;;;;23.50;49.30;;;;;;5109488;28;19950;-57
2021/12/07 18:48:25;;;;;;;;;;;23.50;49.30;;;;;;5090624;28;19962;-57
2021/12/07 18:50:51;;;;;;;;;;;23.50;49.20;;;;;;5091586;28;19908;-58
2021/12/07 18:53:17;;;;;;;;;;;23.50;49.20;;;;;;5092230;28;19920;-57
2021/12/07 18:55:43;;;;;;;;;;;23.50;49.20;;;;;;5092248;28;19908;-58
2021/12/07 18:58:10;;;;;;;;;;;23.50;49.20;;;;;;5091896;28;20395;-57
2021/12/07 19:00:37;;;;;;;;;;;23.50;49.20;;;;;;5091761;28;19970;-57
2021/12/07 19:03:06;;;;;;;;;;;23.50;49.20;;;;;;5091997;28;20329;-57
2021/12/07 19:05:31;;;;;;;;;;;23.50;49.10;;;;;;5091318;28;20309;-57
2021/12/07 19:07:57;;;;;;;;;;;23.50;49.10;;;;;;5092112;28;20463;-57
2021/12/07 19:10:23;;;;;;;;;;;23.50;49.10;;;;;;5091851;28;19908;-57
2021/12/07 19:12:49;;;;;;;;;;;23.50;49.10;;;;;;5091927;28;19908;-57
2021/12/07 19:15:16;;;;;;;;;;;23.50;49.10;;;;;;5091724;28;19915;-57
2021/12/07 19:17:43;;;;;;;;;;;23.50;49.10;;;;;;5091850;28;19915;-57
2021/12/07 19:20:13;;;;;;;;;;;23.50;49.00;;;;;;5091470;28;19916;-56
2021/12/07 19:22:39;;;;;;;;;;;23.50;49.00;;;;;;5096063;28;20301;-57
2021/12/07 19:25:05;;;;;;;;;;;23.50;49.00;;;;;;5095806;28;19908;-57
2021/12/07 19:27:31;;;;;;;;;;;23.50;49.00;;;;;;5095621;28;20300;-57
2021/12/07 19:29:56;;;;;;;;;;;23.50;49.00;;;;;;5095753;28;19948;-57
2021/12/07 19:32:22;;;;;;;;;;;23.50;48.90;;;;;;5095446;28;20357;-57
2021/12/07 19:34:48;;;;;;;;;;;23.50;48.90;;;;;;5095109;28;19909;-57
2021/12/07 19:37:13;;;;;;;;;;;23.50;48.90;;;;;;5095503;28;19908;-57
2021/12/07 19:39:39;;;;;;;;;;;23.50;48.90;;;;;;5095336;28;20322;-57
2021/12/07 19:42:05;;;;;;;;;;;23.50;48.80;;;;;;5095716;28;19958;-57
2021/12/07 19:44:31;;;;;;;;;;;23.50;48.80;;;;;;5095372;28;20439;-56
2021/12/07 19:46:57;;;;;;;;;;;23.50;48.80;;;;;;5107318;28;19953;-57
2021/12/07 19:49:23;;;;;;;;;;;23.50;48.80;;;;;;5115244;28;19960;-58
2021/12/07 19:51:49;;;;;;;;;;;23.50;48.70;;;;;;5115773;28;19907;-56
2021/12/07 19:54:15;;;;;;;;;;;23.50;48.70;;;;;;5115748;28;19908;-54
2021/12/07 19:56:44;;;;;;;;;;;23.50;48.70;;;;;;5108344;28;19927;-56
2021/12/07 19:59:14;;;;;;;;;;;23.40;48.70;;;;;;5090585;28;20236;-57
2021/12/07 20:01:40;;;;;;;;;;;23.50;48.70;;;;;;5092054;28;19920;-57
2021/12/07 20:04:07;;;;;;;;;;;23.40;48.70;;;;;;5092412;28;19921;-57
2021/12/07 20:06:33;;;;;;;;;;;23.40;48.70;;;;;;5092283;28;20356;-57
2021/12/07 20:08:59;;;;;;;;;;;23.40;48.70;;;;;;5092522;28;20416;-57
2021/12/07 20:11:26;;;;;;;;;;;23.40;48.70;;;;;;5092115;28;20384;-57
2021/12/07 20:13:52;;;;;;;;;;;23.40;48.70;;;;;;5092310;28;19908;-57
2021/12/07 20:16:17;;;;;;;;;;;23.40;48.70;;;;;;5091583;28;19908;-57
2021/12/07 20:18:44;;;;;;;;;;;23.40;48.70;;;;;;5092218;28;19912;-57
2021/12/07 20:21:10;;;;;;;;;;;23.40;48.70;;;;;;5091849;28;20015;-58
2021/12/07 20:23:38;;;;;;;;;;;23.40;48.70;;;;;;5095928;28;19939;-57
2021/12/07 20:26:04;;;;;;;;;;;23.40;48.70;;;;;;5113433;28;19943;-57
2021/12/07 20:28:30;;;;;;;;;;;23.40;48.70;;;;;;5113583;28;20360;-57
2021/12/07 20:30:55;;;;;;;;;;;23.40;48.70;;;;;;5114195;28;19965;-57
2021/12/07 20:33:20;;;;;;;;;;;23.40;48.70;;;;;;5114004;28;19935;-57
2021/12/07 20:35:46;;;;;;;;;;;23.40;48.70;;;;;;5114799;28;19912;-57
2021/12/07 20:38:11;;;;;;;;;;;23.40;48.70;;;;;;5114820;28;20370;-57
2021/12/07 20:40:40;;;;;;;;;;;23.40;48.70;;;;;;5110846;28;20279;-57
2021/12/07 20:43:07;;;;;;;;;;;23.40;48.70;;;;;;5112115;28;20359;-57
2021/12/07 20:45:34;;;;;;;;;;;23.50;48.70;;;;;;5111513;28;20358;-57
2021/12/07 20:47:59;;;;;;;;;;;23.40;48.70;;;;;;5112099;28;20248;-57
2021/12/07 20:50:25;;;;;;;;;;;23.40;48.70;;;;;;5112382;28;19961;-58
2021/12/07 20:52:51;;;;;;;;;;;23.40;48.70;;;;;;5111741;28;19912;-57
2021/12/07 20:55:17;;;;;;;;;;;23.40;48.70;;;;;;5111970;28;19951;-58
2021/12/07 20:57:43;;;;;;;;;;;23.40;48.70;;;;;;5111940;28;19962;-58
2021/12/07 21:00:10;;;;;;;;;;;23.40;48.70;;;;;;5111144;28;19924;-55
2021/12/07 21:02:36;;;;;;;;;;;23.40;48.70;;;;;;5111700;28;19912;-58
2021/12/07 21:05:02;;;;;;;;;;;23.40;48.70;;;;;;5111497;28;19908;-58
2021/12/07 21:07:27;;;;;;;;;;;23.40;48.70;;;;;;5111865;28;20256;-58
2021/12/07 21:09:53;;;;;;;;;;;23.50;48.80;;;;;;5111621;28;19911;-58
2021/12/07 21:12:19;;;;;;;;;;;23.50;48.80;;;;;;5111485;28;19908;-58
2021/12/07 21:14:44;;;;;;;;;;;23.50;48.80;;;;;;5095216;28;19912;-59
2021/12/07 21:17:10;;;;;;;;;;;23.50;48.70;;;;;;5111258;28;20348;-59
2021/12/07 21:19:36;;;;;;;;;;;23.50;48.70;;;;;;5112369;28;19923;-58
2021/12/07 21:22:02;;;;;;;;;;;23.50;48.70;;;;;;5113850;28;20398;-58
2021/12/07 21:24:27;;;;;;;;;;;23.50;48.70;;;;;;5113228;28;20439;-57
2021/12/07 21:26:53;;;;;;;;;;;23.50;48.70;;;;;;5113929;28;20225;-58
2021/12/07 21:29:20;;;;;;;;;;;23.50;48.70;;;;;;5113324;28;19943;-58
2021/12/07 21:31:46;;;;;;;;;;;23.50;48.60;;;;;;5113661;28;19930;-57
2021/12/07 21:34:11;;;;;;;;;;;23.50;48.60;;;;;;5113661;28;20416;-57
2021/12/07 21:36:36;;;;;;;;;;;23.50;48.60;;;;;;5109999;28;20312;-58
2021/12/07 21:39:03;;;;;;;;;;;23.50;48.50;;;;;;5110867;28;20003;-58
2021/12/07 21:41:28;;;;;;;;;;;23.50;48.50;;;;;;5110991;28;19935;-58
2021/12/07 21:43:54;;;;;;;;;;;23.50;48.40;;;;;;5109494;28;19958;-58
2021/12/07 21:46:19;;;;;;;;;;;23.50;48.40;;;;;;5110756;28;20257;-58
2021/12/07 21:48:45;;;;;;;;;;;23.40;48.30;;;;;;5110357;28;19912;-58
2021/12/07 21:51:11;;;;;;;;;;;23.50;48.40;;;;;;5110687;28;19915;-58
2021/12/07 21:53:37;;;;;;;;;;;23.40;48.30;;;;;;5110836;28;19912;-58
2021/12/07 21:56:03;;;;;;;;;;;23.40;48.30;;;;;;5110613;28;20329;-58
2021/12/07 21:58:28;;;;;;;;;;;23.40;48.20;;;;;;5110082;28;19927;-58
2021/12/07 22:00:54;;;;;;;;;;;23.40;48.20;;;;;;5110283;28;20011;-57
2021/12/07 22:03:20;;;;;;;;;;;23.40;48.20;;;;;;5110663;28;20303;-58
2021/12/07 22:05:45;;;;;;;;;;;23.40;48.20;;;;;;5110704;28;20439;-59
2021/12/07 22:08:12;;;;;;;;;;;23.40;48.20;;;;;;5110363;28;20280;-58
2021/12/07 22:10:40;;;;;;;;;;;23.40;48.20;;;;;;5110351;28;19934;-58
2021/12/07 22:13:06;;;;;;;;;;;23.30;48.10;;;;;;5109623;28;19911;-58
2021/12/07 22:15:32;;;;;;;;;;;23.40;48.10;;;;;;5110852;28;20387;-58
2021/12/07 22:17:57;;;;;;;;;;;23.30;48.00;;;;;;5105117;28;19912;-58
2021/12/07 22:20:23;;;;;;;;;;;23.30;48.00;;;;;;5098973;28;19922;-58
2021/12/07 22:22:48;;;;;;;;;;;23.30;48.00;;;;;;5110854;28;19915;-58
2021/12/07 22:25:14;;;;;;;;;;;23.30;48.00;;;;;;5111964;28;19915;-58
2021/12/07 22:27:40;;;;;;;;;;;23.30;48.00;;;;;;5111627;28;19907;-58
2021/12/07 22:30:07;;;;;;;;;;;23.30;48.00;;;;;;5113015;28;19907;-58
2021/12/07 22:32:32;;;;;;;;;;;23.30;47.90;;;;;;5112714;28;19916;-58
2021/12/07 22:34:58;;;;;;;;;;;23.30;47.90;;;;;;5112814;28;19907;-58
2021/12/07 22:37:23;;;;;;;;;;;23.20;47.90;;;;;;5112729;28;19907;-58
2021/12/07 22:39:49;;;;;;;;;;;23.20;47.80;;;;;;5112589;28;20261;-58
2021/12/07 22:42:16;;;;;;;;;;;23.20;47.80;;;;;;5111972;28;20417;-58
2021/12/07 22:44:41;;;;;;;;;;;23.20;47.80;;;;;;5112717;28;20283;-58
2021/12/07 22:47:07;;;;;;;;;;;23.20;47.80;;;;;;5112483;28;20352;-58
2021/12/07 22:49:32;;;;;;;;;;;23.20;47.80;;;;;;5112466;28;20296;-58
2021/12/07 22:51:58;;;;;;;;;;;23.20;47.70;;;;;;5112575;28;19908;-58
2021/12/07 22:54:24;;;;;;;;;;;23.10;47.70;;;;;;5112243;28;20313;-58
2021/12/07 22:56:51;;;;;;;;;;;23.10;47.70;;;;;;5111852;28;20001;-58
2021/12/07 22:59:16;;;;;;;;;;;23.10;47.70;;;;;;5112163;28;19919;-58
2021/12/07 23:01:42;;;;;;;;;;;23.10;47.60;;;;;;5112342;28;20002;-58
2021/12/07 23:04:08;;;;;;;;;;;23.10;47.60;;;;;;5112319;28;20371;-58
2021/12/07 23:06:33;;;;;;;;;;;23.10;47.60;;;;;;5112233;28;19908;-58
2021/12/07 23:08:59;;;;;;;;;;;23.10;47.60;;;;;;5112278;28;19915;-58
2021/12/07 23:11:25;;;;;;;;;;;23.10;47.60;;;;;;5111708;28;19908;-58
2021/12/07 23:13:52;;;;;;;;;;;23.00;47.60;;;;;;5112218;28;19960;-58
2021/12/07 23:16:18;;;;;;;;;;;23.00;47.50;;;;;;5112340;28;19986;-58
2021/12/07 23:18:44;;;;;;;;;;;23.00;47.60;;;;;;5112215;28;19973;-58
2021/12/07 23:21:13;;;;;;;;;;;23.00;48.10;;;;;;5112226;28;19907;-58
2021/12/07 23:23:39;;;;;;;;;;;23.00;47.50;;;;;;5112165;28;20436;-58
2021/12/07 23:26:05;;;;;;;;;;;23.00;47.50;;;;;;5111617;28;19998;-58
2021/12/07 23:28:32;;;;;;;;;;;23.00;47.50;;;;;;5112122;28;19943;-58
2021/12/07 23:30:59;;;;;;;;;;;23.00;47.50;;;;;;5112252;28;19908;-58
2021/12/07 23:33:25;;;;;;;;;;;23.00;47.40;;;;;;5112114;28;19908;-58
2021/12/07 23:35:51;;;;;;;;;;;23.00;47.40;;;;;;5112113;28;19907;-58
2021/12/07 23:38:17;;;;;;;;;;;22.90;47.30;;;;;;5112034;28;20012;-58
2021/12/07 23:40:44;;;;;;;;;;;22.90;47.30;;;;;;5111299;28;20012;-58
2021/12/07 23:43:11;;;;;;;;;;;22.90;47.30;;;;;;5112013;28;19908;-58
2021/12/07 23:45:37;;;;;;;;;;;22.90;47.20;;;;;;5111946;28;19943;-58
2021/12/07 23:48:02;;;;;;;;;;;22.90;47.30;;;;;;5111920;28;19949;-58
2021/12/07 23:50:28;;;;;;;;;;;22.90;47.20;;;;;;5093650;28;20002;-58
2021/12/07 23:52:53;;;;;;;;;;;22.90;47.20;;;;;;5111892;28;19954;-58
2021/12/07 23:55:19;;;;;;;;;;;22.90;47.20;;;;;;5111326;28;20323;-58
2021/12/07 23:57:45;;;;;;;;;;;22.90;47.20;;;;;;5111815;28;19952;-59
